sensor_id;sensor_type;location;lat;lon;timestamp;temperature;humidity
41294;DHT22;27037;52.010;4.446;2023-02-28T00:00:44;2.80;99.90
41294;DHT22;27037;52.010;4.446;2023-02-28T00:03:10;2.80;99.90
41294;DHT22;27037;52.010;4.446;2023-02-28T00:05:35;2.90;99.90
41294;DHT22;27037;52.010;4.446;2023-02-28T00:08:01;2.80;99.90
41294;DHT22;27037;52.010;4.446;2023-02-28T00:10:29;2.80;99.90
41294;DHT22;27037;52.010;4.446;2023-02-28T00:12:58;2.80;99.90
41294;DHT22;27037;52.010;4.446;2023-02-28T00:15:24;2.90;99.90
41294;DHT22;27037;52.010;4.446;2023-02-28T00:17:50;2.90;99.90
41294;DHT22;27037;52.010;4.446;2023-02-28T00:20:16;2.90;99.90
41294;DHT22;27037;52.010;4.446;2023-02-28T00:22:44;3.00;99.90
41294;DHT22;27037;52.010;4.446;2023-02-28T00:25:12;2.90;99.90
41294;DHT22;27037;52.010;4.446;2023-02-28T00:27:39;3.00;99.90
41294;DHT22;27037;52.010;4.446;2023-02-28T00:30:07;3.00;99.90
41294;DHT22;27037;52.010;4.446;2023-02-28T00:32:33;3.00;99.90
41294;DHT22;27037;52.010;4.446;2023-02-28T00:35:00;3.00;99.90
41294;DHT22;27037;52.010;4.446;2023-02-28T00:37:26;3.10;99.90
41294;DHT22;27037;52.010;4.446;2023-02-28T00:39:51;3.10;99.90
41294;DHT22;27037;52.010;4.446;2023-02-28T00:42:17;3.10;99.90
41294;DHT22;27037;52.010;4.446;2023-02-28T00:44:43;3.20;99.90
41294;DHT22;27037;52.010;4.446;2023-02-28T00:47:08;3.20;99.90
41294;DHT22;27037;52.010;4.446;2023-02-28T00:49:34;3.20;99.90
41294;DHT22;27037;52.010;4.446;2023-02-28T00:51:59;3.20;99.90
41294;DHT22;27037;52.010;4.446;2023-02-28T00:54:25;3.30;99.90
41294;DHT22;27037;52.010;4.446;2023-02-28T00:56:51;3.30;99.90
41294;DHT22;27037;52.010;4.446;2023-02-28T00:59:18;3.30;99.90
41294;DHT22;27037;52.010;4.446;2023-02-28T01:01:45;3.30;99.90
41294;DHT22;27037;52.010;4.446;2023-02-28T01:04:11;3.40;99.90
41294;DHT22;27037;52.010;4.446;2023-02-28T01:06:37;3.40;99.90
41294;DHT22;27037;52.010;4.446;2023-02-28T01:09:04;3.40;99.90
41294;DHT22;27037;52.010;4.446;2023-02-28T01:11:30;3.50;99.90
41294;DHT22;27037;52.010;4.446;2023-02-28T01:13:56;3.50;99.90
41294;DHT22;27037;52.010;4.446;2023-02-28T01:16:22;3.50;99.90
41294;DHT22;27037;52.010;4.446;2023-02-28T01:18:48;3.50;99.90
41294;DHT22;27037;52.010;4.446;2023-02-28T01:21:15;3.50;99.90
41294;DHT22;27037;52.010;4.446;2023-02-28T01:23:41;3.60;99.90
41294;DHT22;27037;52.010;4.446;2023-02-28T01:26:09;3.60;99.90
41294;DHT22;27037;52.010;4.446;2023-02-28T01:28:35;3.60;99.90
41294;DHT22;27037;52.010;4.446;2023-02-28T01:31:01;3.60;99.90
41294;DHT22;27037;52.010;4.446;2023-02-28T01:33:27;3.60;99.90
41294;DHT22;27037;52.010;4.446;2023-02-28T01:36:01;3.70;99.90
41294;DHT22;27037;52.010;4.446;2023-02-28T01:38:27;3.70;99.90
41294;DHT22;27037;52.010;4.446;2023-02-28T01:40:53;3.70;99.90
41294;DHT22;27037;52.010;4.446;2023-02-28T01:45:47;3.70;99.90
41294;DHT22;27037;52.010;4.446;2023-02-28T01:48:13;3.70;99.90
41294;DHT22;27037;52.010;4.446;2023-02-28T01:50:41;3.70;99.90
41294;DHT22;27037;52.010;4.446;2023-02-28T01:53:14;3.70;99.90
41294;DHT22;27037;52.010;4.446;2023-02-28T01:55:45;3.70;99.90
41294;DHT22;27037;52.010;4.446;2023-02-28T01:58:12;3.70;99.90
41294;DHT22;27037;52.010;4.446;2023-02-28T02:00:38;3.70;99.90
41294;DHT22;27037;52.010;4.446;2023-02-28T02:03:08;3.70;99.90
41294;DHT22;27037;52.010;4.446;2023-02-28T02:05:37;3.70;99.90
41294;DHT22;27037;52.010;4.446;2023-02-28T02:08:06;3.70;99.90
41294;DHT22;27037;52.010;4.446;2023-02-28T02:10:47;3.80;99.90
41294;DHT22;27037;52.010;4.446;2023-02-28T02:18:47;3.80;99.90
41294;DHT22;27037;52.010;4.446;2023-02-28T02:24:11;3.80;99.90
41294;DHT22;27037;52.010;4.446;2023-02-28T02:27:20;3.80;99.90
41294;DHT22;27037;52.010;4.446;2023-02-28T02:36:14;3.80;99.90
41294;DHT22;27037;52.010;4.446;2023-02-28T02:38:52;3.80;99.90
41294;DHT22;27037;52.010;4.446;2023-02-28T02:44:15;3.80;99.90
41294;DHT22;27037;52.010;4.446;2023-02-28T02:46:44;3.80;99.90
41294;DHT22;27037;52.010;4.446;2023-02-28T02:49:20;3.80;99.90
41294;DHT22;27037;52.010;4.446;2023-02-28T02:51:47;3.80;99.90
41294;DHT22;27037;52.010;4.446;2023-02-28T02:54:21;3.80;99.90
41294;DHT22;27037;52.010;4.446;2023-02-28T02:56:49;3.80;99.90
41294;DHT22;27037;52.010;4.446;2023-02-28T02:59:19;3.90;99.90
41294;DHT22;27037;52.010;4.446;2023-02-28T03:01:50;3.90;99.90
41294;DHT22;27037;52.010;4.446;2023-02-28T03:04:20;3.90;99.90
41294;DHT22;27037;52.010;4.446;2023-02-28T03:06:47;3.90;99.90
41294;DHT22;27037;52.010;4.446;2023-02-28T03:09:13;3.90;99.90
41294;DHT22;27037;52.010;4.446;2023-02-28T03:11:40;3.90;99.90
41294;DHT22;27037;52.010;4.446;2023-02-28T03:22:40;4.00;99.90
41294;DHT22;27037;52.010;4.446;2023-02-28T03:25:37;4.00;99.90
41294;DHT22;27037;52.010;4.446;2023-02-28T03:28:07;4.00;99.90
41294;DHT22;27037;52.010;4.446;2023-02-28T03:36:32;4.00;99.90
41294;DHT22;27037;52.010;4.446;2023-02-28T03:39:04;4.00;99.90
41294;DHT22;27037;52.010;4.446;2023-02-28T03:41:36;4.00;99.90
41294;DHT22;27037;52.010;4.446;2023-02-28T03:44:12;4.00;99.90
41294;DHT22;27037;52.010;4.446;2023-02-28T03:46:49;4.00;99.90
41294;DHT22;27037;52.010;4.446;2023-02-28T03:49:21;4.00;99.90
41294;DHT22;27037;52.010;4.446;2023-02-28T03:51:49;4.00;99.90
41294;DHT22;27037;52.010;4.446;2023-02-28T03:54:24;4.00;99.90
41294;DHT22;27037;52.010;4.446;2023-02-28T03:56:59;4.00;99.90
41294;DHT22;27037;52.010;4.446;2023-02-28T03:59:30;4.10;99.90
41294;DHT22;27037;52.010;4.446;2023-02-28T04:01:58;4.00;99.90
41294;DHT22;27037;52.010;4.446;2023-02-28T04:04:24;4.10;99.90
41294;DHT22;27037;52.010;4.446;2023-02-28T04:07:01;4.10;99.90
41294;DHT22;27037;52.010;4.446;2023-02-28T04:09:27;4.10;99.90
41294;DHT22;27037;52.010;4.446;2023-02-28T04:11:54;4.10;99.90
41294;DHT22;27037;52.010;4.446;2023-02-28T04:14:21;4.10;99.90
41294;DHT22;27037;52.010;4.446;2023-02-28T04:16:47;4.10;99.90
41294;DHT22;27037;52.010;4.446;2023-02-28T04:19:14;4.10;99.90
41294;DHT22;27037;52.010;4.446;2023-02-28T04:22:00;4.10;99.90
41294;DHT22;27037;52.010;4.446;2023-02-28T04:24:27;4.20;99.90
41294;DHT22;27037;52.010;4.446;2023-02-28T04:26:55;4.10;99.90
41294;DHT22;27037;52.010;4.446;2023-02-28T04:29:24;4.10;99.90
41294;DHT22;27037;52.010;4.446;2023-02-28T04:31:50;4.10;99.90
41294;DHT22;27037;52.010;4.446;2023-02-28T04:34:16;4.20;99.90
41294;DHT22;27037;52.010;4.446;2023-02-28T04:36:42;4.20;99.90
41294;DHT22;27037;52.010;4.446;2023-02-28T04:39:08;4.20;99.90
41294;DHT22;27037;52.010;4.446;2023-02-28T04:41:35;4.20;99.90
41294;DHT22;27037;52.010;4.446;2023-02-28T04:44:00;4.20;99.90
41294;DHT22;27037;52.010;4.446;2023-02-28T04:46:26;4.20;99.90
41294;DHT22;27037;52.010;4.446;2023-02-28T04:48:52;4.20;99.90
41294;DHT22;27037;52.010;4.446;2023-02-28T04:51:19;4.20;99.90
41294;DHT22;27037;52.010;4.446;2023-02-28T04:53:45;4.20;99.90
41294;DHT22;27037;52.010;4.446;2023-02-28T04:56:13;4.20;99.90
41294;DHT22;27037;52.010;4.446;2023-02-28T04:58:39;4.20;99.90
41294;DHT22;27037;52.010;4.446;2023-02-28T05:03:43;4.20;99.90
41294;DHT22;27037;52.010;4.446;2023-02-28T05:06:09;4.20;99.90
41294;DHT22;27037;52.010;4.446;2023-02-28T05:08:36;4.20;99.90
41294;DHT22;27037;52.010;4.446;2023-02-28T05:11:02;4.20;99.90
41294;DHT22;27037;52.010;4.446;2023-02-28T05:13:28;4.20;99.90
41294;DHT22;27037;52.010;4.446;2023-02-28T05:15:54;4.20;99.90
41294;DHT22;27037;52.010;4.446;2023-02-28T05:18:20;4.20;99.90
41294;DHT22;27037;52.010;4.446;2023-02-28T05:20:46;4.20;99.90
41294;DHT22;27037;52.010;4.446;2023-02-28T05:23:13;4.20;99.90
41294;DHT22;27037;52.010;4.446;2023-02-28T05:25:39;4.20;99.90
41294;DHT22;27037;52.010;4.446;2023-02-28T05:28:06;4.10;99.90
41294;DHT22;27037;52.010;4.446;2023-02-28T05:30:32;4.10;99.90
41294;DHT22;27037;52.010;4.446;2023-02-28T05:32:58;4.10;99.90
41294;DHT22;27037;52.010;4.446;2023-02-28T05:35:24;4.10;99.90
41294;DHT22;27037;52.010;4.446;2023-02-28T05:37:50;4.10;99.90
41294;DHT22;27037;52.010;4.446;2023-02-28T05:40:16;4.10;99.90
41294;DHT22;27037;52.010;4.446;2023-02-28T05:42:42;4.10;99.90
41294;DHT22;27037;52.010;4.446;2023-02-28T05:45:09;4.10;99.90
41294;DHT22;27037;52.010;4.446;2023-02-28T05:47:35;4.00;99.90
41294;DHT22;27037;52.010;4.446;2023-02-28T05:50:01;4.00;99.90
41294;DHT22;27037;52.010;4.446;2023-02-28T05:52:27;4.10;99.90
41294;DHT22;27037;52.010;4.446;2023-02-28T05:54:53;4.00;99.90
41294;DHT22;27037;52.010;4.446;2023-02-28T05:57:18;4.00;99.90
41294;DHT22;27037;52.010;4.446;2023-02-28T05:59:44;4.00;99.90
41294;DHT22;27037;52.010;4.446;2023-02-28T06:02:13;4.00;99.90
41294;DHT22;27037;52.010;4.446;2023-02-28T06:04:39;4.00;99.90
41294;DHT22;27037;52.010;4.446;2023-02-28T06:07:06;4.00;99.90
41294;DHT22;27037;52.010;4.446;2023-02-28T06:09:32;4.00;99.90
41294;DHT22;27037;52.010;4.446;2023-02-28T06:12:03;4.00;99.90
41294;DHT22;27037;52.010;4.446;2023-02-28T06:14:31;4.00;99.90
41294;DHT22;27037;52.010;4.446;2023-02-28T06:16:58;4.00;99.90
41294;DHT22;27037;52.010;4.446;2023-02-28T06:19:24;4.00;99.90
41294;DHT22;27037;52.010;4.446;2023-02-28T06:21:54;4.00;99.90
41294;DHT22;27037;52.010;4.446;2023-02-28T06:24:25;4.00;99.90
41294;DHT22;27037;52.010;4.446;2023-02-28T06:26:53;3.90;99.90
41294;DHT22;27037;52.010;4.446;2023-02-28T06:29:19;3.90;99.90
41294;DHT22;27037;52.010;4.446;2023-02-28T06:31:45;3.90;99.90
41294;DHT22;27037;52.010;4.446;2023-02-28T06:34:12;3.90;99.90
41294;DHT22;27037;52.010;4.446;2023-02-28T06:36:41;3.90;99.90
41294;DHT22;27037;52.010;4.446;2023-02-28T06:39:08;3.80;99.90
41294;DHT22;27037;52.010;4.446;2023-02-28T06:41:34;3.80;99.90
41294;DHT22;27037;52.010;4.446;2023-02-28T06:44:04;3.70;99.90
41294;DHT22;27037;52.010;4.446;2023-02-28T06:46:31;3.70;99.90
41294;DHT22;27037;52.010;4.446;2023-02-28T06:48:57;3.70;99.90
41294;DHT22;27037;52.010;4.446;2023-02-28T06:51:23;3.60;99.90
41294;DHT22;27037;52.010;4.446;2023-02-28T06:53:50;3.60;99.90
41294;DHT22;27037;52.010;4.446;2023-02-28T06:56:17;3.60;99.90
41294;DHT22;27037;52.010;4.446;2023-02-28T06:58:46;3.60;99.90
41294;DHT22;27037;52.010;4.446;2023-02-28T07:01:13;3.60;99.90
41294;DHT22;27037;52.010;4.446;2023-02-28T07:03:39;3.60;99.90
41294;DHT22;27037;52.010;4.446;2023-02-28T07:06:05;3.50;99.90
41294;DHT22;27037;52.010;4.446;2023-02-28T07:08:32;3.50;99.90
41294;DHT22;27037;52.010;4.446;2023-02-28T07:10:58;3.50;99.90
41294;DHT22;27037;52.010;4.446;2023-02-28T07:13:24;3.50;99.90
41294;DHT22;27037;52.010;4.446;2023-02-28T07:16:02;3.50;99.90
41294;DHT22;27037;52.010;4.446;2023-02-28T07:18:28;3.50;99.90
41294;DHT22;27037;52.010;4.446;2023-02-28T07:20:54;3.50;99.90
41294;DHT22;27037;52.010;4.446;2023-02-28T07:23:20;3.40;99.90
41294;DHT22;27037;52.010;4.446;2023-02-28T07:25:46;3.40;99.90
41294;DHT22;27037;52.010;4.446;2023-02-28T07:28:12;3.30;99.90
41294;DHT22;27037;52.010;4.446;2023-02-28T07:30:39;3.30;99.90
41294;DHT22;27037;52.010;4.446;2023-02-28T07:33:05;3.30;99.90
41294;DHT22;27037;52.010;4.446;2023-02-28T07:35:31;3.30;99.90
41294;DHT22;27037;52.010;4.446;2023-02-28T07:38:00;3.20;99.90
41294;DHT22;27037;52.010;4.446;2023-02-28T07:40:26;3.20;99.90
41294;DHT22;27037;52.010;4.446;2023-02-28T07:42:52;3.20;99.90
41294;DHT22;27037;52.010;4.446;2023-02-28T07:45:18;3.20;99.90
41294;DHT22;27037;52.010;4.446;2023-02-28T07:47:45;3.10;99.90
41294;DHT22;27037;52.010;4.446;2023-02-28T07:50:13;3.10;99.90
41294;DHT22;27037;52.010;4.446;2023-02-28T07:52:40;3.10;99.90
41294;DHT22;27037;52.010;4.446;2023-02-28T07:55:07;3.10;99.90
41294;DHT22;27037;52.010;4.446;2023-02-28T07:57:33;3.00;99.90
41294;DHT22;27037;52.010;4.446;2023-02-28T07:59:59;3.00;99.90
41294;DHT22;27037;52.010;4.446;2023-02-28T08:02:25;3.00;99.90
41294;DHT22;27037;52.010;4.446;2023-02-28T08:04:51;3.00;99.90
41294;DHT22;27037;52.010;4.446;2023-02-28T08:07:17;3.00;99.90
41294;DHT22;27037;52.010;4.446;2023-02-28T08:09:44;2.90;99.90
41294;DHT22;27037;52.010;4.446;2023-02-28T08:12:10;2.90;99.90
41294;DHT22;27037;52.010;4.446;2023-02-28T08:14:37;2.90;99.90
41294;DHT22;27037;52.010;4.446;2023-02-28T08:17:04;2.90;99.90
41294;DHT22;27037;52.010;4.446;2023-02-28T08:19:29;2.90;99.90
41294;DHT22;27037;52.010;4.446;2023-02-28T08:21:56;2.90;99.90
41294;DHT22;27037;52.010;4.446;2023-02-28T08:24:22;2.80;99.90
41294;DHT22;27037;52.010;4.446;2023-02-28T08:26:48;2.80;99.90
41294;DHT22;27037;52.010;4.446;2023-02-28T08:29:14;2.90;99.90
41294;DHT22;27037;52.010;4.446;2023-02-28T08:31:39;2.90;99.90
41294;DHT22;27037;52.010;4.446;2023-02-28T08:34:07;2.90;99.90
41294;DHT22;27037;52.010;4.446;2023-02-28T08:36:34;2.90;99.90
41294;DHT22;27037;52.010;4.446;2023-02-28T08:39:00;2.90;99.90
41294;DHT22;27037;52.010;4.446;2023-02-28T08:41:26;2.90;99.90
41294;DHT22;27037;52.010;4.446;2023-02-28T08:43:52;2.90;99.90
41294;DHT22;27037;52.010;4.446;2023-02-28T08:46:19;2.90;99.90
41294;DHT22;27037;52.010;4.446;2023-02-28T08:48:45;3.00;99.90
41294;DHT22;27037;52.010;4.446;2023-02-28T08:51:14;3.00;99.90
41294;DHT22;27037;52.010;4.446;2023-02-28T08:53:41;3.00;99.90
41294;DHT22;27037;52.010;4.446;2023-02-28T08:56:10;3.00;99.90
41294;DHT22;27037;52.010;4.446;2023-02-28T08:58:36;3.00;99.90
41294;DHT22;27037;52.010;4.446;2023-02-28T09:01:28;3.00;99.90
41294;DHT22;27037;52.010;4.446;2023-02-28T09:03:55;3.00;99.90
41294;DHT22;27037;52.010;4.446;2023-02-28T09:06:23;3.00;99.90
41294;DHT22;27037;52.010;4.446;2023-02-28T09:08:49;3.00;99.90
41294;DHT22;27037;52.010;4.446;2023-02-28T09:11:15;3.00;99.90
41294;DHT22;27037;52.010;4.446;2023-02-28T09:13:41;2.90;99.90
41294;DHT22;27037;52.010;4.446;2023-02-28T09:16:10;2.90;99.90
41294;DHT22;27037;52.010;4.446;2023-02-28T09:18:36;2.90;99.90
41294;DHT22;27037;52.010;4.446;2023-02-28T09:21:07;2.90;99.90
41294;DHT22;27037;52.010;4.446;2023-02-28T09:23:33;3.00;99.90
41294;DHT22;27037;52.010;4.446;2023-02-28T09:25:59;3.00;99.90
41294;DHT22;27037;52.010;4.446;2023-02-28T09:28:24;3.10;99.90
41294;DHT22;27037;52.010;4.446;2023-02-28T09:30:52;3.10;99.90
41294;DHT22;27037;52.010;4.446;2023-02-28T09:33:19;3.10;99.90
41294;DHT22;27037;52.010;4.446;2023-02-28T09:35:49;3.20;99.90
41294;DHT22;27037;52.010;4.446;2023-02-28T09:38:15;3.30;99.90
41294;DHT22;27037;52.010;4.446;2023-02-28T09:40:53;3.30;99.90
41294;DHT22;27037;52.010;4.446;2023-02-28T09:43:23;3.40;99.90
41294;DHT22;27037;52.010;4.446;2023-02-28T09:46:00;3.40;99.90
41294;DHT22;27037;52.010;4.446;2023-02-28T09:48:36;3.40;99.90
41294;DHT22;27037;52.010;4.446;2023-02-28T09:52:13;3.50;99.90
41294;DHT22;27037;52.010;4.446;2023-02-28T09:54:14;3.60;99.90
41294;DHT22;27037;52.010;4.446;2023-02-28T09:56:46;3.70;99.90
41294;DHT22;27037;52.010;4.446;2023-02-28T10:04:35;3.90;99.90
41294;DHT22;27037;52.010;4.446;2023-02-28T10:07:15;4.00;99.90
41294;DHT22;27037;52.010;4.446;2023-02-28T10:09:46;4.10;99.90
41294;DHT22;27037;52.010;4.446;2023-02-28T10:12:13;4.10;99.90
41294;DHT22;27037;52.010;4.446;2023-02-28T10:14:45;4.20;99.90
41294;DHT22;27037;52.010;4.446;2023-02-28T10:17:19;4.20;99.90
41294;DHT22;27037;52.010;4.446;2023-02-28T10:25:24;4.30;99.90
41294;DHT22;27037;52.010;4.446;2023-02-28T10:28:00;4.30;99.90
41294;DHT22;27037;52.010;4.446;2023-02-28T10:30:26;4.30;99.90
41294;DHT22;27037;52.010;4.446;2023-02-28T10:32:52;4.30;99.90
41294;DHT22;27037;52.010;4.446;2023-02-28T10:35:21;4.30;99.90
41294;DHT22;27037;52.010;4.446;2023-02-28T10:37:54;4.40;99.90
41294;DHT22;27037;52.010;4.446;2023-02-28T10:43:18;4.50;99.90
41294;DHT22;27037;52.010;4.446;2023-02-28T10:45:56;4.50;99.90
41294;DHT22;27037;52.010;4.446;2023-02-28T10:48:44;4.50;99.90
41294;DHT22;27037;52.010;4.446;2023-02-28T10:51:14;4.50;99.90
41294;DHT22;27037;52.010;4.446;2023-02-28T10:59:03;4.60;99.90
41294;DHT22;27037;52.010;4.446;2023-02-28T11:04:03;4.60;99.90
41294;DHT22;27037;52.010;4.446;2023-02-28T11:06:33;4.60;99.90
41294;DHT22;27037;52.010;4.446;2023-02-28T11:09:01;4.70;99.90
41294;DHT22;27037;52.010;4.446;2023-02-28T11:11:29;4.90;99.90
41294;DHT22;27037;52.010;4.446;2023-02-28T11:14:02;5.10;99.90
41294;DHT22;27037;52.010;4.446;2023-02-28T11:16:33;5.30;99.90
41294;DHT22;27037;52.010;4.446;2023-02-28T11:19:00;5.50;99.90
41294;DHT22;27037;52.010;4.446;2023-02-28T11:21:31;5.70;99.90
41294;DHT22;27037;52.010;4.446;2023-02-28T11:24:15;5.80;99.90
41294;DHT22;27037;52.010;4.446;2023-02-28T11:26:47;6.00;99.90
41294;DHT22;27037;52.010;4.446;2023-02-28T11:32:07;6.30;99.90
41294;DHT22;27037;52.010;4.446;2023-02-28T11:34:37;6.40;99.90
41294;DHT22;27037;52.010;4.446;2023-02-28T11:37:05;6.50;99.90
41294;DHT22;27037;52.010;4.446;2023-02-28T11:39:32;6.60;99.90
41294;DHT22;27037;52.010;4.446;2023-02-28T11:42:28;6.70;99.90
41294;DHT22;27037;52.010;4.446;2023-02-28T11:45:36;6.80;99.90
41294;DHT22;27037;52.010;4.446;2023-02-28T11:48:49;6.80;99.90
41294;DHT22;27037;52.010;4.446;2023-02-28T11:51:52;6.90;99.90
41294;DHT22;27037;52.010;4.446;2023-02-28T12:05:45;7.30;99.90
41294;DHT22;27037;52.010;4.446;2023-02-28T12:27:35;7.80;99.90
41294;DHT22;27037;52.010;4.446;2023-02-28T12:32:44;7.90;99.90
41294;DHT22;27037;52.010;4.446;2023-02-28T12:37:46;8.10;99.90
41294;DHT22;27037;52.010;4.446;2023-02-28T12:40:22;8.20;99.90
41294;DHT22;27037;52.010;4.446;2023-02-28T12:42:55;8.30;99.90
41294;DHT22;27037;52.010;4.446;2023-02-28T12:45:26;8.40;99.90
41294;DHT22;27037;52.010;4.446;2023-02-28T12:48:00;8.50;99.90
41294;DHT22;27037;52.010;4.446;2023-02-28T12:50:27;8.60;99.90
41294;DHT22;27037;52.010;4.446;2023-02-28T12:53:00;8.60;99.90
41294;DHT22;27037;52.010;4.446;2023-02-28T12:58:43;8.60;99.90
41294;DHT22;27037;52.010;4.446;2023-02-28T13:06:58;8.70;99.90
41294;DHT22;27037;52.010;4.446;2023-02-28T13:09:26;8.70;99.90
41294;DHT22;27037;52.010;4.446;2023-02-28T13:11:53;8.60;99.90
41294;DHT22;27037;52.010;4.446;2023-02-28T13:19:37;8.70;99.90
41294;DHT22;27037;52.010;4.446;2023-02-28T13:22:05;8.70;99.90
41294;DHT22;27037;52.010;4.446;2023-02-28T13:24:57;8.70;99.90
41294;DHT22;27037;52.010;4.446;2023-02-28T13:27:41;8.70;99.90
41294;DHT22;27037;52.010;4.446;2023-02-28T13:33:30;8.70;99.70
41294;DHT22;27037;52.010;4.446;2023-02-28T13:38:41;8.70;99.40
41294;DHT22;27037;52.010;4.446;2023-02-28T13:44:21;8.70;98.40
41294;DHT22;27037;52.010;4.446;2023-02-28T13:55:00;8.90;97.90
41294;DHT22;27037;52.010;4.446;2023-02-28T14:00:15;8.80;96.50
41294;DHT22;27037;52.010;4.446;2023-02-28T14:05:33;8.90;96.30
41294;DHT22;27037;52.010;4.446;2023-02-28T14:08:06;8.90;96.20
41294;DHT22;27037;52.010;4.446;2023-02-28T14:10:46;8.90;95.80
41294;DHT22;27037;52.010;4.446;2023-02-28T14:15:59;8.80;95.50
41294;DHT22;27037;52.010;4.446;2023-02-28T14:18:55;8.80;95.40
41294;DHT22;27037;52.010;4.446;2023-02-28T14:21:22;8.80;95.40
41294;DHT22;27037;52.010;4.446;2023-02-28T14:24:15;8.80;94.70
41294;DHT22;27037;52.010;4.446;2023-02-28T14:27:22;8.80;94.70
41294;DHT22;27037;52.010;4.446;2023-02-28T14:32:29;8.80;94.70
41294;DHT22;27037;52.010;4.446;2023-02-28T14:37:54;8.80;94.70
41294;DHT22;27037;52.010;4.446;2023-02-28T14:40:30;8.80;95.20
41294;DHT22;27037;52.010;4.446;2023-02-28T14:43:00;8.80;95.70
41294;DHT22;27037;52.010;4.446;2023-02-28T14:45:31;8.80;94.40
41294;DHT22;27037;52.010;4.446;2023-02-28T14:47:59;8.70;95.10
41294;DHT22;27037;52.010;4.446;2023-02-28T14:50:34;8.80;94.70
41294;DHT22;27037;52.010;4.446;2023-02-28T14:53:01;8.70;95.10
41294;DHT22;27037;52.010;4.446;2023-02-28T14:55:34;8.80;95.30
41294;DHT22;27037;52.010;4.446;2023-02-28T14:58:03;8.80;95.00
41294;DHT22;27037;52.010;4.446;2023-02-28T15:00:34;8.80;94.20
41294;DHT22;27037;52.010;4.446;2023-02-28T15:03:11;8.70;93.10
41294;DHT22;27037;52.010;4.446;2023-02-28T15:05:51;8.70;92.90
41294;DHT22;27037;52.010;4.446;2023-02-28T15:08:17;8.60;92.60
41294;DHT22;27037;52.010;4.446;2023-02-28T15:11:11;8.60;92.50
41294;DHT22;27037;52.010;4.446;2023-02-28T15:13:48;8.60;92.00
41294;DHT22;27037;52.010;4.446;2023-02-28T15:18:56;8.60;91.50
41294;DHT22;27037;52.010;4.446;2023-02-28T15:21:36;8.50;91.10
41294;DHT22;27037;52.010;4.446;2023-02-28T15:24:06;8.50;91.50
41294;DHT22;27037;52.010;4.446;2023-02-28T15:26:38;8.40;89.80
41294;DHT22;27037;52.010;4.446;2023-02-28T15:29:16;8.40;90.50
41294;DHT22;27037;52.010;4.446;2023-02-28T15:31:55;8.40;90.50
41294;DHT22;27037;52.010;4.446;2023-02-28T15:34:33;8.30;90.20
41294;DHT22;27037;52.010;4.446;2023-02-28T15:37:00;8.20;90.10
41294;DHT22;27037;52.010;4.446;2023-02-28T15:39:28;8.20;90.60
41294;DHT22;27037;52.010;4.446;2023-02-28T15:42:18;8.10;90.50
41294;DHT22;27037;52.010;4.446;2023-02-28T15:44:44;8.10;91.10
41294;DHT22;27037;52.010;4.446;2023-02-28T15:47:19;8.00;90.90
41294;DHT22;27037;52.010;4.446;2023-02-28T15:49:49;8.00;90.60
41294;DHT22;27037;52.010;4.446;2023-02-28T15:52:20;7.90;90.30
41294;DHT22;27037;52.010;4.446;2023-02-28T15:54:47;7.80;90.10
41294;DHT22;27037;52.010;4.446;2023-02-28T15:57:22;7.80;90.80
41294;DHT22;27037;52.010;4.446;2023-02-28T16:00:01;7.70;91.10
41294;DHT22;27037;52.010;4.446;2023-02-28T16:02:34;7.60;91.60
41294;DHT22;27037;52.010;4.446;2023-02-28T16:07:32;7.50;93.10
41294;DHT22;27037;52.010;4.446;2023-02-28T16:09:59;7.40;93.40
41294;DHT22;27037;52.010;4.446;2023-02-28T16:12:30;7.30;93.90
41294;DHT22;27037;52.010;4.446;2023-02-28T16:14:58;7.20;94.20
41294;DHT22;27037;52.010;4.446;2023-02-28T16:17:29;7.20;94.70
41294;DHT22;27037;52.010;4.446;2023-02-28T16:19:56;7.10;95.00
41294;DHT22;27037;52.010;4.446;2023-02-28T16:22:23;7.10;95.60
41294;DHT22;27037;52.010;4.446;2023-02-28T16:24:49;7.00;96.00
41294;DHT22;27037;52.010;4.446;2023-02-28T16:27:21;6.90;96.40
41294;DHT22;27037;52.010;4.446;2023-02-28T16:29:50;6.90;96.90
41294;DHT22;27037;52.010;4.446;2023-02-28T16:32:16;6.80;97.40
41294;DHT22;27037;52.010;4.446;2023-02-28T16:34:43;6.70;97.50
41294;DHT22;27037;52.010;4.446;2023-02-28T16:37:14;6.70;97.70
41294;DHT22;27037;52.010;4.446;2023-02-28T16:39:41;6.70;98.00
41294;DHT22;27037;52.010;4.446;2023-02-28T16:42:07;6.60;98.40
41294;DHT22;27037;52.010;4.446;2023-02-28T16:44:35;6.60;98.80
41294;DHT22;27037;52.010;4.446;2023-02-28T16:47:02;6.50;99.10
41294;DHT22;27037;52.010;4.446;2023-02-28T16:49:29;6.40;99.50
41294;DHT22;27037;52.010;4.446;2023-02-28T16:51:55;6.30;99.90
41294;DHT22;27037;52.010;4.446;2023-02-28T16:54:21;6.20;99.90
41294;DHT22;27037;52.010;4.446;2023-02-28T16:56:48;6.20;99.90
41294;DHT22;27037;52.010;4.446;2023-02-28T16:59:17;6.10;99.90
41294;DHT22;27037;52.010;4.446;2023-02-28T17:01:43;6.10;99.90
41294;DHT22;27037;52.010;4.446;2023-02-28T17:04:11;6.00;99.90
41294;DHT22;27037;52.010;4.446;2023-02-28T17:06:36;5.90;99.90
41294;DHT22;27037;52.010;4.446;2023-02-28T17:09:02;5.90;99.90
41294;DHT22;27037;52.010;4.446;2023-02-28T17:11:28;5.80;99.90
41294;DHT22;27037;52.010;4.446;2023-02-28T17:13:54;5.80;99.90
41294;DHT22;27037;52.010;4.446;2023-02-28T17:16:31;5.70;99.90
41294;DHT22;27037;52.010;4.446;2023-02-28T17:19:00;5.70;99.90
41294;DHT22;27037;52.010;4.446;2023-02-28T17:21:26;5.60;99.90
41294;DHT22;27037;52.010;4.446;2023-02-28T17:23:51;5.60;99.90
41294;DHT22;27037;52.010;4.446;2023-02-28T17:26:18;5.50;99.90
41294;DHT22;27037;52.010;4.446;2023-02-28T17:28:50;5.40;99.90
41294;DHT22;27037;52.010;4.446;2023-02-28T17:31:16;5.40;99.90
41294;DHT22;27037;52.010;4.446;2023-02-28T17:33:43;5.30;99.90
41294;DHT22;27037;52.010;4.446;2023-02-28T17:36:18;5.30;99.90
41294;DHT22;27037;52.010;4.446;2023-02-28T17:38:47;5.20;99.90
41294;DHT22;27037;52.010;4.446;2023-02-28T17:41:13;5.20;99.90
41294;DHT22;27037;52.010;4.446;2023-02-28T17:43:39;5.10;99.90
41294;DHT22;27037;52.010;4.446;2023-02-28T17:46:06;5.10;99.90
41294;DHT22;27037;52.010;4.446;2023-02-28T17:48:33;5.00;99.90
41294;DHT22;27037;52.010;4.446;2023-02-28T17:50:58;5.00;99.90
41294;DHT22;27037;52.010;4.446;2023-02-28T17:53:24;4.90;99.90
41294;DHT22;27037;52.010;4.446;2023-02-28T17:55:50;4.90;99.90
41294;DHT22;27037;52.010;4.446;2023-02-28T17:58:16;4.80;99.90
41294;DHT22;27037;52.010;4.446;2023-02-28T18:00:44;4.80;99.90
41294;DHT22;27037;52.010;4.446;2023-02-28T18:03:10;4.80;99.90
41294;DHT22;27037;52.010;4.446;2023-02-28T18:05:36;4.80;99.90
41294;DHT22;27037;52.010;4.446;2023-02-28T18:08:02;4.70;99.90
41294;DHT22;27037;52.010;4.446;2023-02-28T18:10:28;4.70;99.90
41294;DHT22;27037;52.010;4.446;2023-02-28T18:12:54;4.60;99.90
41294;DHT22;27037;52.010;4.446;2023-02-28T18:15:21;4.60;99.90
41294;DHT22;27037;52.010;4.446;2023-02-28T18:17:47;4.60;99.90
41294;DHT22;27037;52.010;4.446;2023-02-28T18:20:13;4.50;99.90
41294;DHT22;27037;52.010;4.446;2023-02-28T18:22:40;4.50;99.90
41294;DHT22;27037;52.010;4.446;2023-02-28T18:25:07;4.50;99.90
41294;DHT22;27037;52.010;4.446;2023-02-28T18:27:37;4.50;99.90